PWSweather.com
Personal Weather Stations
Station Observations
CAMPIGIANO
Campi Bisenzio, FirenzeIT

Campi BisenzioFirenzeIT

Lat: 43.8175012, Lon: 11.1391085

Elevation: 106

Station Type: LaCrosse WS2350

Latest ConditionsUpdated 5:45:01 AM GMT+01:01 Saturday, Oct 1, 2016
Currently Today's Max Today's Min Today's Average
Temperature 58.1°F14.5°C 63.1°F17.3°C 58.1°F14.5°C 59.7°F15.4°C
Dew Point 53.0°F11.7°C 56.9°F13.8°C 52.8°F11.6°C 53.9°F12.2°C
Winds Calm Calm Calm SSWCalm SSW - Calm Calm
Wind Gusts -- -- - -
Humidity 83% 83% 80% 81%
Pressure 30.01 in1016.3 mb 30.05 in1017.6 mb 30.01 in1016.3 mb -
Hour Temp Dew Point Humidity Winds Wind Gusts Pressure Precip Precip Rate Daily Precip Total
05:45 AM 58.1°F14.5°C 53.0°F11.7°C 83% Calm Calm -- 30.01 in1016.3 mb - 0.00 in0.0 mm 0.00 in0.0 mm
05:30 AM 58.3°F14.6°C 52.8°F11.6°C 82% Calm Calm -- 30.02 in1016.6 mb - 0.00 in0.0 mm 0.00 in0.0 mm
05:15 AM 58.3°F14.6°C 52.8°F11.6°C 82% Calm Calm -- 30.01 in1016.3 mb - 0.00 in0.0 mm 0.00 in0.0 mm
05:00 AM 58.6°F14.8°C 53.2°F11.8°C 82% Calm Calm -- 30.02 in1016.6 mb - 0.00 in0.0 mm 0.00 in0.0 mm
04:45 AM 58.6°F14.8°C 53.2°F11.8°C 82% Calm Calm -- 30.01 in1016.3 mb - 0.00 in0.0 mm 0.00 in0.0 mm
04:15 AM 58.8°F14.9°C 53.0°F11.7°C 81% Calm Calm -- 30.02 in1016.6 mb - 0.00 in0.0 mm 0.00 in0.0 mm
04:00 AM 58.8°F14.9°C 53.0°F11.7°C 81% Calm Calm -- 30.02 in1016.6 mb - 0.00 in0.0 mm 0.00 in0.0 mm
03:45 AM 59.0°F15.0°C 53.2°F11.8°C 81% Calm Calm -- 30.02 in1016.6 mb - 0.00 in0.0 mm 0.00 in0.0 mm
03:15 AM 60.1°F15.6°C 53.9°F12.2°C 80% Calm Calm -- 30.02 in1016.6 mb - 0.00 in0.0 mm 0.00 in0.0 mm
03:00 AM 60.1°F15.6°C 53.9°F12.2°C 80% Calm Calm -- 30.02 in1016.6 mb - 0.00 in0.0 mm 0.00 in0.0 mm
02:45 AM 59.9°F15.5°C 53.7°F12.1°C 80% Calm Calm -- 30.02 in1016.6 mb - 0.00 in0.0 mm 0.00 in0.0 mm
02:15 AM 59.7°F15.4°C 53.5°F11.9°C 80% Calm Calm -- 30.03 in1016.9 mb - 0.00 in0.0 mm 0.00 in0.0 mm
02:00 AM 59.9°F15.5°C 53.7°F12.1°C 80% Calm Calm -- 30.04 in1017.3 mb - 0.00 in0.0 mm 0.00 in0.0 mm
01:45 AM 60.4°F15.8°C 54.2°F12.3°C 80% Calm Calm -- 30.04 in1017.3 mb - 0.00 in0.0 mm 0.00 in0.0 mm
01:30 AM 61.5°F16.4°C 55.6°F13.1°C 81% Calm Calm -- 30.04 in1017.3 mb - 0.00 in0.0 mm 0.00 in0.0 mm
01:15 AM 62.4°F16.9°C 56.5°F13.6°C 81% Calm Calm -- 30.05 in1017.6 mb - 0.00 in0.0 mm 0.00 in0.0 mm
01:00 AM 63.1°F17.3°C 56.9°F13.8°C 80% Calm Calm -- 30.05 in1017.6 mb - 0.00 in0.0 mm 0.00 in0.0 mm
12:45 AM 63.5°F17.5°C 57.2°F14.0°C 80% Calm Calm -- 30.05 in1017.6 mb - 0.00 in0.0 mm 0.00 in0.0 mm
12:30 AM 64.0°F17.8°C 57.4°F14.1°C 79% Calm Calm -- 30.06 in1017.9 mb - 0.00 in0.0 mm 0.00 in0.0 mm
12:15 AM 64.0°F17.8°C 57.4°F14.1°C 79% Calm Calm -- 30.06 in1017.9 mb - 0.00 in0.0 mm 0.00 in0.0 mm
12:00 AM 64.0°F17.8°C 57.4°F14.1°C 79% Calm Calm -- 30.06 in1017.9 mb - 0.00 in0.0 mm 0.00 in0.0 mm